Portada
METAR-TAF:

METAR-TAF

Aeroports :

Aeroport Internacional d'Abu Dhabi

Abu Dhabi, Emirats Àrabs Units

latitud: 24-26N, longitud: 054-39E, altitud: 16 m

Observació

L'informe es va fer fa 48 minuts, a les 00:00 UTC
Vent 2 kt del Oest
Temperatura 32°C
Humitat 67%
Pressió 995 hPa
Visibilitat 10 km o més
sense núvols per sota de 1500 mi sense presència de cumulonimbus.

METAR: OMAA 170000Z 26002KT CAVOK 32/25 Q0995 NOSIG

Hora: 04:48 (00:48 UTC)

Pronòstic

L'informe es va fer fa 1 hora i 48 minuts, a les 23:00 UTC
Pronòstic vàlid del 17 a les 00 UTC al 18 a les 06 UTC
Vent 5 kt del Sud/Sud-Oest
Visibilitat: 8000 m
Evolucionant progressivament
l' 17 a les 07 UTC al 17 a les 09 UTC
Vent 14 kt del Oest/Nord-Oest
Evolucionant progressivament
l' 17 a les 17 UTC al 17 a les 19 UTC
Vent 4 kt del Sud-Oest
Probabilitat 30%
l' 18 a les 01 UTC al 18 a les 04 UTC
Visibilitat: 4000 m
calitja

TAF: OMAA 162300Z 1700/1806 20005KT 8000 NSC BECMG 1707/1709 29014KT BECMG 1717/1719 22004KT PROB30 1801/1804 4000 HZ

Observacions i pronòstics meteorològics de més de 4000 aeroports (METAR i TAF).

Les estacions disponibles són els punts grocs i vermells al mapa.

Posi el ratolí al punt desitjat per veure el nom de l'estació.

Feu clic per veure les observacions i els pronòstics meteorològics.

Per canviar el mapa: feu clic els botons verds amb una creu de color negre per apropar; al botó verd amb un guió per allunyar la imatge; o en les fletxes verdes per a mapes adjacents.


METAR-TAF: